Latest Weather Observations for Longreach

IDQ60801

Issued at 2:05 pm EST Monday 28 July 2014 (issued every 30 minutes, with the page automatically refreshed every 10 minutes)

About weather observations | Map of weather stations | Latest weather observations for QLD | Other Formats
Station Details ID: 036031 Name: LONGREACH AERO Lat: -23.44 Lon: 144.28 Height: 192.2 m
Data from the previous 72 hours. | See also: Recent months at Longreach
Date/Time
EST
Temp
°C
App
Temp
°C
Dew
Point
Rel
Hum
%
Delta-T
°C
Wind Press
QNH
hPa
Press
MSL
hPa
Rain
since 9 am
mm
Dir
 
Spd
km/h
Gust
km/h
Spd
kts
Gust
kts
28/02:00pm 26.9 23.5 3.9 22 11.6 S 11 20 6 11 1019.3 - 0.0
28/01:30pm 26.6 23.6 4.0 23 11.4 WNW 9 13 5 7 1019.8 - 0.0
28/01:00pm 26.8 23.3 3.3 22 11.7 W 11 19 6 10 1020.3 - 0.0
28/12:30pm 26.1 23.5 4.0 24 11.1 S 7 11 4 6 1021.1 - 0.0
28/12:00pm 26.9 23.6 4.5 23 11.4 N 11 17 6 9 1021.7 1021.5 0.0
28/11:30am 25.4 21.7 4.6 26 10.5 N 13 19 7 10 1022.3 - 0.0
28/11:00am 24.8 21.1 4.5 27 10.2 N 13 19 7 10 1022.6 - 0.0
28/10:30am 23.7 19.2 4.4 28 9.6 NNE 17 24 9 13 1023.0 - 0.0
28/10:00am 22.8 17.3 3.8 29 9.3 NNE 22 28 12 15 1023.2 - 0.0
28/09:30am 21.6 16.5 3.3 30 8.8 NE 19 26 10 14 1023.3 - 0.0
28/09:00am 19.9 16.7 2.9 32 8.0 N 9 11 5 6 1023.1 1022.9 0.0
28/08:30am 15.4 12.0 1.6 39 6.1 E 9 11 5 6 1022.8 - 0.0
28/08:00am 12.9 9.3 0.9 44 5.1 ESE 9 11 5 6 1022.4 - 0.0
28/07:30am 9.9 6.6 0.0 50 4.0 E 7 7 4 4 1022.2 - 0.0
28/07:00am 10.7 6.7 0.8 50 4.1 SSE 11 15 6 8 1021.8 - 0.0
28/06:30am 9.3 5.8 1.0 56 3.4 SE 9 11 5 6 1021.6 - 0.0
28/06:00am 11.2 8.1 1.2 50 4.2 SE 7 11 4 6 1021.2 1021.0 0.0
28/05:30am 11.0 7.0 0.3 47 4.4 SSE 11 15 6 8 1021.0 - 0.0
28/05:00am 9.8 6.8 0.8 53 3.7 SSW 6 7 3 4 1021.0 - 0.0
28/04:30am 10.3 7.6 0.3 50 4.1 S 4 9 2 5 1021.1 - 0.0
28/04:00am 12.2 8.7 1.1 46 4.7 SSW 9 13 5 7 1021.0 - 0.0
28/03:30am 13.3 10.1 0.9 42 5.3 SE 7 9 4 5 1021.0 - 0.0
28/03:00am 13.4 9.0 0.4 41 5.5 SE 13 15 7 8 1021.0 1020.8 0.0
28/02:30am 13.5 10.7 2.1 46 5.0 ENE 6 13 3 7 1021.1 - 0.0
28/02:00am 12.0 8.9 1.5 48 4.5 SE 7 9 4 5 1021.1 - 0.0
28/01:30am 14.1 11.2 2.7 46 5.1 SSE 7 9 4 5 1021.4 - 0.0
28/01:00am 14.3 11.0 2.4 44 5.3 SSE 9 11 5 6 1021.5 - 0.0
28/12:30am 14.8 11.1 2.2 42 5.6 SSE 11 13 6 7 1021.8 - 0.0
28/12:00am 16.6 12.8 1.9 37 6.6 SE 11 11 6 6 1021.8 1021.6 0.0
 
Date/Time
EST
Temp
°C
App
Temp
°C
Dew
Point
Rel
Hum
%
Delta-T
°C
Wind Press
QNH
hPa
Press
MSL
hPa
Rain
since 9 am
mm
Dir
 
Spd
km/h
Gust
km/h
Spd
kts
Gust
kts
27/11:30pm 16.3 11.7 1.7 37 6.5 ESE 15 17 8 9 1021.9 - 0.0
27/11:00pm 17.9 13.0 1.8 34 7.3 ESE 17 19 9 10 1022.0 - 0.0
27/10:30pm 17.3 13.1 1.8 35 7.0 ESE 13 15 7 8 1022.2 - 0.0
27/10:00pm 19.4 15.3 2.0 31 8.0 ESE 13 15 7 8 1022.2 - 0.0
27/09:30pm 18.3 14.2 2.4 34 7.3 SE 13 15 7 8 1022.3 - 0.0
27/09:00pm 19.0 14.6 2.7 33 7.6 ESE 15 17 8 9 1022.2 1022.0 0.0
27/08:30pm 20.2 16.2 3.1 32 8.1 SSE 13 17 7 9 1022.0 - 0.0
27/08:00pm 19.6 16.0 2.7 32 7.9 SE 11 13 6 7 1021.7 - 0.0
27/07:30pm 21.1 17.5 3.0 30 8.6 SSE 11 11 6 6 1021.4 - 0.0
27/07:00pm 22.2 18.9 4.3 31 8.8 SSE 11 13 6 7 1021.1 - 0.0
27/06:30pm 23.2 20.8 5.4 31 9.0 S 7 11 4 6 1020.8 - 0.0
27/06:00pm 24.6 22.0 6.0 30 9.6 ESE 9 11 5 6 1020.5 1020.3 0.0
27/05:30pm 26.2 23.4 5.1 26 10.8 SE 9 13 5 7 1020.5 - 0.0
27/05:00pm 26.6 24.4 6.2 27 10.7 E 7 13 4 7 1020.4 - 0.0
27/04:30pm 27.3 25.0 5.6 25 11.3 SW 7 15 4 8 1020.2 - 0.0
27/04:00pm 27.3 24.0 4.3 23 11.7 SSW 11 17 6 9 1020.2 - 0.0
27/03:30pm 27.0 23.8 5.3 25 11.2 SSE 11 19 6 10 1020.3 - 0.0
27/03:00pm 27.3 24.8 6.5 26 11.0 SSE 9 15 5 8 1020.6 1020.4 0.0
27/02:30pm 27.2 24.8 7.2 28 10.7 WSW 9 20 5 11 1021.0 - 0.0
27/02:00pm 26.6 22.8 5.8 26 10.8 SE 15 26 8 14 1021.5 - 0.0
27/01:30pm 26.0 24.2 9.3 34 9.2 SE 9 17 5 9 1022.1 - 0.0
27/01:00pm 26.1 24.3 10.9 38 8.6 SSE 11 17 6 9 1022.6 - 0.0
27/12:30pm 25.2 23.8 11.0 41 8.0 S 9 15 5 8 1023.3 - 0.0
27/12:00pm 24.8 23.2 11.6 43 7.5 ESE 11 24 6 13 1023.9 1023.7 0.0
27/11:30am 24.1 22.8 11.3 44 7.2 SE 9 15 5 8 1024.4 - 0.0
27/11:00am 23.1 22.0 12.0 49 6.3 ESE 9 15 5 8 1024.8 - 0.0
27/10:30am 22.6 21.6 12.4 52 5.8 NE 9 15 5 8 1025.1 - 0.0
27/10:00am 21.3 20.2 12.1 55 5.2 E 9 15 5 8 1025.2 - 0.0
27/09:30am 19.6 17.6 11.5 59 4.5 ESE 13 17 7 9 1025.2 - 0.0
27/09:00am 17.6 15.0 10.7 64 3.7 SE 15 17 8 9 1025.1 1024.9 0.0
27/08:30am 15.0 11.8 9.8 71 2.7 SE 17 22 9 12 1024.7 - 0.0
27/08:00am 13.2 10.5 9.1 76 2.1 SE 13 17 7 9 1024.5 - 0.0
27/07:30am 12.1 9.7 8.7 80 1.7 SSE 11 11 6 6 1024.4 - 0.0
27/07:00am 11.0 8.9 8.4 84 1.3 S 9 11 5 6 1024.2 - 0.0
27/06:30am 11.1 9.5 8.0 81 1.5 SSE 6 9 3 5 1024.0 - 0.0
27/06:00am 12.5 10.7 9.4 81 1.6 ESE 9 11 5 6 1023.7 1023.5 0.0
27/05:30am 12.3 10.5 9.3 82 1.5 SE 9 11 5 6 1023.5 - 0.0
27/05:00am 13.0 10.4 9.3 78 1.9 SSE 13 13 7 7 1023.2 - 0.0
27/04:30am 13.1 11.0 9.6 79 1.8 SSE 11 11 6 6 1023.1 - 0.0
27/04:00am 13.7 11.7 10.0 78 1.9 SSE 11 13 6 7 1023.1 - 0.0
27/03:30am 14.1 11.8 10.3 78 2.0 SE 13 15 7 8 1023.1 - 0.0
27/03:00am 14.2 12.3 10.4 78 2.0 SE 11 13 6 7 1023.3 1023.1 0.0
27/02:30am 15.4 14.1 11.3 76 2.2 ESE 9 9 5 5 1023.4 - 0.0
27/02:00am 15.2 14.2 10.9 75 2.3 ESE 7 9 4 5 1023.5 - 0.0
27/01:30am 15.6 14.3 11.1 74 2.4 ESE 9 9 5 5 1023.7 - 0.0
27/01:00am 15.4 13.1 10.5 72 2.6 ESE 13 15 7 8 1024.0 - 0.0
27/12:30am 16.2 13.9 10.6 69 3.0 ESE 13 17 7 9 1024.1 - 0.0
27/12:00am 17.0 14.9 11.3 69 3.1 E 13 15 7 8 1024.3 1024.1 0.0
 
Date/Time
EST
Temp
°C
App
Temp
°C
Dew
Point
Rel
Hum
%
Delta-T
°C
Wind Press
QNH
hPa
Press
MSL
hPa
Rain
since 9 am
mm
Dir
 
Spd
km/h
Gust
km/h
Spd
kts
Gust
kts
26/11:30pm 17.3 14.7 10.6 64 3.6 E 15 17 8 9 1024.3 - 0.0
26/11:00pm 16.5 14.4 9.6 63 3.6 E 11 13 6 7 1024.4 - 0.0
26/10:30pm 17.3 13.8 7.1 51 5.1 ESE 15 19 8 10 1024.4 - 0.0
26/10:00pm 20.0 17.0 6.0 40 7.0 SE 11 13 6 7 1024.4 - 0.0
26/09:30pm 20.6 17.4 6.9 41 7.0 SSE 13 17 7 9 1024.2 - 0.0
26/09:00pm 21.3 17.8 7.4 40 7.2 SE 15 22 8 12 1024.2 1024.0 0.0
26/08:30pm 21.0 17.8 6.9 40 7.2 SE 13 15 7 8 1024.1 - 0.0
26/08:00pm 21.9 18.7 7.0 38 7.7 S 13 17 7 9 1023.5 - 0.0
26/07:30pm 22.7 20.0 7.4 37 8.0 SSW 11 17 6 9 1023.1 - 0.0
26/07:00pm 23.5 21.5 8.6 38 8.0 SSW 9 13 5 7 1022.8 - 0.0
26/06:30pm 24.4 22.3 9.9 40 8.0 S 11 13 6 7 1022.4 - 0.0
26/06:00pm 25.6 23.5 9.7 36 8.8 SW 11 19 6 10 1021.9 1021.7 0.0
26/05:30pm 26.5 23.5 9.3 33 9.5 SW 15 19 8 10 1021.6 - 0.0
26/05:00pm 27.0 23.9 9.0 32 9.9 SW 15 24 8 13 1021.5 - 0.0
26/04:30pm 27.1 24.2 9.7 33 9.7 SSW 15 24 8 13 1021.4 - 0.0
26/04:00pm 27.5 25.4 9.8 33 9.9 SW 11 19 6 10 1021.3 - 0.0
26/03:30pm 27.5 25.1 10.1 33 9.8 SW 13 20 7 11 1021.2 - 0.0
26/03:00pm 27.9 25.2 10.2 33 10.0 WSW 15 20 8 11 1021.2 1021.0 0.0
26/02:30pm 27.9 25.7 10.9 34 9.7 NW 13 22 7 12 1021.4 - 0.0
26/02:00pm 27.3 26.0 12.4 39 8.7 WNW 11 20 6 11 1021.7 - 0.0
26/01:30pm 27.1 25.5 11.6 38 8.9 WSW 11 17 6 9 1022.1 - 0.0
26/01:00pm 26.0 24.9 11.9 41 8.1 NNW 9 19 5 10 1022.6 - 0.0
26/12:30pm 26.0 24.9 11.9 41 8.1 NW 9 19 5 10 1023.2 - 0.0
26/12:00pm 25.4 23.9 12.0 43 7.7 NNW 11 17 6 9 1023.8 1023.6 0.0
26/11:30am 25.0 22.7 11.9 44 7.5 N 15 26 8 14 1024.3 - 0.0
26/11:00am 24.4 21.8 12.0 46 7.1 N 17 24 9 13 1024.6 - 0.0
26/10:30am 23.7 20.4 11.5 46 6.9 N 20 24 11 13 1024.9 - 0.0
26/10:00am 23.4 19.2 11.1 46 6.9 N 24 32 13 17 1024.9 - 0.0
26/09:30am 22.0 19.1 9.6 45 6.7 NNE 15 19 8 10 1024.6 - 0.0
26/09:00am 19.7 17.4 9.1 50 5.6 NNE 11 13 6 7 1024.5 1024.3 0.0
26/08:30am 18.0 16.0 8.5 53 4.9 E 9 11 5 6 1024.3 - 0.0
26/08:00am 16.4 13.4 7.9 57 4.3 E 13 15 7 8 1023.9 - 0.0
26/07:30am 15.4 12.0 7.8 60 3.8 ESE 15 17 8 9 1023.7 - 0.0
26/07:00am 16.1 13.2 8.0 58 4.1 ESE 13 15 7 8 1023.5 - 0.0
26/06:30am 16.1 13.2 8.2 59 4.0 E 13 13 7 7 1023.2 - 0.0
26/06:00am 16.9 14.1 8.6 58 4.3 ESE 13 15 7 8 1022.9 1022.7 0.0
26/05:30am 17.1 14.6 8.1 55 4.6 SE 11 13 6 7 1022.6 - 0.0
26/05:00am 18.2 15.9 9.0 55 4.8 SE 11 13 6 7 1022.4 - 0.0
26/04:30am 17.6 15.7 9.2 58 4.4 S 9 9 5 5 1022.3 - 0.0
26/04:00am 17.5 14.7 8.6 56 4.6 ESE 13 17 7 9 1022.1 - 0.0
26/03:30am 17.9 16.0 8.9 55 4.7 S 9 11 5 6 1022.0 - 0.0
26/03:00am 17.9 14.8 8.7 55 4.8 WSW 15 20 8 11 1022.2 1022.0 0.0
26/02:30am 17.9 15.4 8.4 53 4.9 ESE 11 13 6 7 1021.6 - 0.0
26/02:00am 17.5 14.7 8.4 55 4.7 ESE 13 15 7 8 1021.6 - 0.0
26/01:30am 18.3 15.1 8.5 52 5.1 ESE 15 15 8 8 1021.8 - 0.0
26/01:00am 18.1 15.4 8.9 55 4.8 E 13 15 7 8 1021.8 - 0.0
26/12:30am 18.3 16.7 8.9 54 4.9 ENE 7 9 4 5 1021.9 - 0.0
26/12:00am 19.6 17.5 9.7 52 5.3 NE 11 13 6 7 1021.9 1021.7 0.0
 
Date/Time
EST
Temp
°C
App
Temp
°C
Dew
Point
Rel
Hum
%
Delta-T
°C
Wind Press
QNH
hPa
Press
MSL
hPa
Rain
since 9 am
mm
Dir
 
Spd
km/h
Gust
km/h
Spd
kts
Gust
kts
25/11:30pm 20.5 17.9 9.5 49 5.9 NE 13 15 7 8 1022.0 - 0.0
25/11:00pm 21.2 18.6 9.5 47 6.3 NE 13 15 7 8 1022.0 - 0.0
25/10:30pm 21.7 19.1 9.2 44 6.7 NE 13 15 7 8 1021.9 - 0.0
25/10:00pm 22.0 19.2 8.7 42 7.1 NE 13 15 7 8 1021.8 - 0.0
25/09:30pm 22.3 19.5 8.6 41 7.3 NE 13 15 7 8 1021.7 - 0.0
25/09:00pm 22.8 19.7 8.8 40 7.5 ENE 15 15 8 8 1021.5 1021.3 0.0
25/08:30pm 23.1 20.0 9.0 40 7.6 ENE 15 17 8 9 1021.2 - 0.0
25/08:00pm 23.8 20.2 8.3 37 8.3 ENE 17 22 9 12 1020.9 - 0.0
25/07:30pm 23.3 21.0 7.3 35 8.4 NE 9 11 5 6 1020.4 - 0.0
25/07:00pm 23.8 21.6 7.8 36 8.5 ENE 9 9 5 5 1019.9 - 0.0
25/06:30pm 24.4 22.0 7.1 33 9.1 NNE 9 9 5 5 1019.6 - 0.0
25/06:00pm 24.3 22.1 7.7 34 8.8 NNE 9 11 5 6 1019.3 1019.1 0.0
25/05:30pm 26.4 23.0 7.8 30 10.0 N 15 17 8 9 1019.0 - 0.0
25/05:00pm 27.3 25.1 7.9 29 10.5 N 9 13 5 7 1018.8 - 0.0
25/04:30pm 28.0 24.9 7.4 27 11.1 N 13 20 7 11 1018.6 - 0.0
25/04:00pm 28.2 24.9 8.1 28 11.0 N 15 20 8 11 1018.4 - 0.0
25/03:30pm 27.8 25.1 9.0 30 10.4 NNE 13 20 7 11 1018.2 - 0.0
25/03:00pm 29.1 25.5 8.2 27 11.5 NNW 17 24 9 13 1018.3 1018.1 0.0
25/02:30pm 28.5 25.9 7.7 27 11.3 N 11 13 6 7 1018.4 - 0.0

Other Formats:

Comma delimited format used in spreadsheet applications
http://www.bom.gov.au/fwo/IDQ60801/IDQ60801.94346.axf

JavaScript Object Notation format (JSON) in row-major order
http://www.bom.gov.au/fwo/IDQ60801/IDQ60801.94346.json